sensor_id;sensor_type;location;lat;lon;timestamp;pressure;altitude;pressure_sealevel;temperature;humidity
62126;BME280;48112;53.282;6.150;2023-01-28T00:00:27;103181.13;;;15.55;47.96
62126;BME280;48112;53.282;6.150;2023-01-28T00:01:31;103188.16;;;15.56;48.11
62126;BME280;48112;53.282;6.150;2023-01-28T00:02:34;103190.38;;;15.54;48.00
62126;BME280;48112;53.282;6.150;2023-01-28T00:03:36;103191.19;;;15.55;47.95
62126;BME280;48112;53.282;6.150;2023-01-28T00:04:40;103188.47;;;15.55;47.94
62126;BME280;48112;53.282;6.150;2023-01-28T00:05:42;103184.94;;;15.54;48.00
62126;BME280;48112;53.282;6.150;2023-01-28T00:06:45;103183.34;;;15.53;48.09
62126;BME280;48112;53.282;6.150;2023-01-28T00:07:48;103184.94;;;15.54;47.96
62126;BME280;48112;53.282;6.150;2023-01-28T00:08:49;103179.50;;;15.54;48.08
62126;BME280;48112;53.282;6.150;2023-01-28T00:09:52;103182.22;;;15.54;47.87
62126;BME280;48112;53.282;6.150;2023-01-28T00:10:54;103179.50;;;15.54;47.95
62126;BME280;48112;53.282;6.150;2023-01-28T00:11:59;103180.63;;;15.53;48.03
62126;BME280;48112;53.282;6.150;2023-01-28T00:13:01;103177.91;;;15.53;47.97
62126;BME280;48112;53.282;6.150;2023-01-28T00:14:03;103174.38;;;15.53;48.07
62126;BME280;48112;53.282;6.150;2023-01-28T00:15:06;103177.09;;;15.53;47.98
62126;BME280;48112;53.282;6.150;2023-01-28T00:16:10;103177.09;;;15.53;48.09
62126;BME280;48112;53.282;6.150;2023-01-28T00:17:12;103179.03;;;15.52;48.05
62126;BME280;48112;53.282;6.150;2023-01-28T00:18:15;103177.09;;;15.53;47.97
62126;BME280;48112;53.282;6.150;2023-01-28T00:19:16;103177.41;;;15.51;47.85
62126;BME280;48112;53.282;6.150;2023-01-28T00:20:19;103177.09;;;15.53;48.19
62126;BME280;48112;53.282;6.150;2023-01-28T00:21:21;103173.59;;;15.52;48.00
62126;BME280;48112;53.282;6.150;2023-01-28T00:22:24;103173.59;;;15.52;48.04
62126;BME280;48112;53.282;6.150;2023-01-28T00:23:25;103178.22;;;15.52;47.91
62126;BME280;48112;53.282;6.150;2023-01-28T00:24:29;103170.06;;;15.52;47.95
62126;BME280;48112;53.282;6.150;2023-01-28T00:25:30;103169.25;;;15.51;47.98
62126;BME280;48112;53.282;6.150;2023-01-28T00:26:33;103174.69;;;15.51;48.01
62126;BME280;48112;53.282;6.150;2023-01-28T00:27:35;103175.50;;;15.52;48.09
62126;BME280;48112;53.282;6.150;2023-01-28T00:28:38;103178.22;;;15.52;47.96
62126;BME280;48112;53.282;6.150;2023-01-28T00:29:39;103175.50;;;15.52;48.13
62126;BME280;48112;53.282;6.150;2023-01-28T00:30:42;103170.06;;;15.52;48.11
62126;BME280;48112;53.282;6.150;2023-01-28T00:31:45;103169.25;;;15.51;48.02
62126;BME280;48112;53.282;6.150;2023-01-28T00:32:48;103171.97;;;15.51;47.92
62126;BME280;48112;53.282;6.150;2023-01-28T00:33:50;103167.66;;;15.50;47.92
62126;BME280;48112;53.282;6.150;2023-01-28T00:34:52;103164.59;;;15.52;47.98
62126;BME280;48112;53.282;6.150;2023-01-28T00:35:57;103166.53;;;15.51;48.00
62126;BME280;48112;53.282;6.150;2023-01-28T00:37:00;103163.78;;;15.51;47.92
62126;BME280;48112;53.282;6.150;2023-01-28T00:38:04;103163.00;;;15.51;48.13
62126;BME280;48112;53.282;6.150;2023-01-28T00:39:09;103161.06;;;15.51;47.91
62126;BME280;48112;53.282;6.150;2023-01-28T00:40:12;103162.22;;;15.50;47.85
62126;BME280;48112;53.282;6.150;2023-01-28T00:41:15;103163.00;;;15.51;48.00
62126;BME280;48112;53.282;6.150;2023-01-28T00:42:17;103155.94;;;15.50;47.99
62126;BME280;48112;53.282;6.150;2023-01-28T00:43:21;103151.31;;;15.50;48.07
62126;BME280;48112;53.282;6.150;2023-01-28T00:44:23;103162.22;;;15.50;47.80
62126;BME280;48112;53.282;6.150;2023-01-28T00:45:25;103155.13;;;15.49;47.85
62126;BME280;48112;53.282;6.150;2023-01-28T00:46:28;103156.75;;;15.50;48.06
62126;BME280;48112;53.282;6.150;2023-01-28T00:47:32;103154.34;;;15.49;48.03
62126;BME280;48112;53.282;6.150;2023-01-28T00:48:34;103155.94;;;15.50;48.02
62126;BME280;48112;53.282;6.150;2023-01-28T00:49:39;103151.63;;;15.49;48.53
62126;BME280;48112;53.282;6.150;2023-01-28T00:50:42;103149.69;;;15.49;47.91
62126;BME280;48112;53.282;6.150;2023-01-28T00:51:47;103152.41;;;15.49;47.85
62126;BME280;48112;53.282;6.150;2023-01-28T00:52:49;103148.91;;;15.49;48.03
62126;BME280;48112;53.282;6.150;2023-01-28T00:53:52;103153.53;;;15.48;47.99
62126;BME280;48112;53.282;6.150;2023-01-28T00:54:54;103160.59;;;15.49;47.95
62126;BME280;48112;53.282;6.150;2023-01-28T00:55:59;103150.81;;;15.48;48.07
62126;BME280;48112;53.282;6.150;2023-01-28T00:57:01;103150.81;;;15.48;47.85
62126;BME280;48112;53.282;6.150;2023-01-28T00:58:04;103153.53;;;15.48;48.07
62126;BME280;48112;53.282;6.150;2023-01-28T00:59:05;103153.53;;;15.48;47.87
62126;BME280;48112;53.282;6.150;2023-01-28T01:00:09;103151.94;;;15.47;47.97
62126;BME280;48112;53.282;6.150;2023-01-28T01:01:14;103146.50;;;15.47;47.89
62126;BME280;48112;53.282;6.150;2023-01-28T01:02:17;103146.50;;;15.47;48.06
62126;BME280;48112;53.282;6.150;2023-01-28T01:03:20;103150.81;;;15.48;47.88
62126;BME280;48112;53.282;6.150;2023-01-28T01:04:23;103152.72;;;15.48;48.10
62126;BME280;48112;53.282;6.150;2023-01-28T01:05:27;103154.69;;;15.47;48.02
62126;BME280;48112;53.282;6.150;2023-01-28T01:06:30;103152.72;;;15.48;48.05
62126;BME280;48112;53.282;6.150;2023-01-28T01:07:35;103150.31;;;15.46;48.12
62126;BME280;48112;53.282;6.150;2023-01-28T01:08:42;103159.00;;;15.48;48.07
62126;BME280;48112;53.282;6.150;2023-01-28T01:09:51;103146.50;;;15.47;47.94
62126;BME280;48112;53.282;6.150;2023-01-28T01:10:57;103157.41;;;15.47;47.93
62126;BME280;48112;53.282;6.150;2023-01-28T01:11:59;103146.50;;;15.47;48.11
62126;BME280;48112;53.282;6.150;2023-01-28T01:13:03;103160.13;;;15.47;48.01
62126;BME280;48112;53.282;6.150;2023-01-28T01:14:05;103155.78;;;15.46;48.03
62126;BME280;48112;53.282;6.150;2023-01-28T01:15:08;103162.84;;;15.47;47.93
62126;BME280;48112;53.282;6.150;2023-01-28T01:16:12;103163.94;;;15.46;48.06
62126;BME280;48112;53.282;6.150;2023-01-28T01:17:16;103163.16;;;15.46;48.01
62126;BME280;48112;53.282;6.150;2023-01-28T01:18:18;103163.94;;;15.46;48.03
62126;BME280;48112;53.282;6.150;2023-01-28T01:19:22;103166.66;;;15.46;47.91
62126;BME280;48112;53.282;6.150;2023-01-28T01:20:24;103168.59;;;15.46;47.94
62126;BME280;48112;53.282;6.150;2023-01-28T01:21:28;103165.88;;;15.46;47.93
62126;BME280;48112;53.282;6.150;2023-01-28T01:22:31;103171.31;;;15.46;48.00
62126;BME280;48112;53.282;6.150;2023-01-28T01:23:35;103177.56;;;15.46;48.02
62126;BME280;48112;53.282;6.150;2023-01-28T01:24:37;103172.09;;;15.46;48.06
62126;BME280;48112;53.282;6.150;2023-01-28T01:25:40;103167.78;;;15.45;47.97
62126;BME280;48112;53.282;6.150;2023-01-28T01:26:42;103174.06;;;15.46;47.96
62126;BME280;48112;53.282;6.150;2023-01-28T01:27:46;103167.78;;;15.45;48.02
62126;BME280;48112;53.282;6.150;2023-01-28T01:28:49;103170.50;;;15.45;47.92
62126;BME280;48112;53.282;6.150;2023-01-28T01:29:52;103165.06;;;15.45;48.03
62126;BME280;48112;53.282;6.150;2023-01-28T01:30:58;103161.53;;;15.45;47.90
62126;BME280;48112;53.282;6.150;2023-01-28T01:32:00;103164.25;;;15.45;48.00
62126;BME280;48112;53.282;6.150;2023-01-28T01:33:02;103162.34;;;15.45;47.82
62126;BME280;48112;53.282;6.150;2023-01-28T01:34:06;103165.06;;;15.45;48.02
62126;BME280;48112;53.282;6.150;2023-01-28T01:35:09;103163.47;;;15.44;48.10
62126;BME280;48112;53.282;6.150;2023-01-28T01:36:13;103166.19;;;15.44;48.07
62126;BME280;48112;53.282;6.150;2023-01-28T01:37:18;103168.91;;;15.44;48.03
62126;BME280;48112;53.282;6.150;2023-01-28T01:38:20;103163.47;;;15.44;47.85
62126;BME280;48112;53.282;6.150;2023-01-28T01:39:22;103160.75;;;15.44;48.03
62126;BME280;48112;53.282;6.150;2023-01-28T01:40:25;103168.91;;;15.44;47.88
62126;BME280;48112;53.282;6.150;2023-01-28T01:41:30;103168.13;;;15.44;48.03
62126;BME280;48112;53.282;6.150;2023-01-28T01:42:33;103172.44;;;15.45;47.93
62126;BME280;48112;53.282;6.150;2023-01-28T01:43:47;103161.84;;;15.43;48.14
62126;BME280;48112;53.282;6.150;2023-01-28T01:44:54;103165.38;;;15.44;48.00
62126;BME280;48112;53.282;6.150;2023-01-28T01:45:58;103166.19;;;15.44;48.04
62126;BME280;48112;53.282;6.150;2023-01-28T01:47:02;103170.84;;;15.44;48.00
62126;BME280;48112;53.282;6.150;2023-01-28T01:48:06;103161.06;;;15.43;47.97
62126;BME280;48112;53.282;6.150;2023-01-28T01:49:16;103170.03;;;15.43;48.06
62126;BME280;48112;53.282;6.150;2023-01-28T01:50:23;103167.31;;;15.43;47.84
62126;BME280;48112;53.282;6.150;2023-01-28T01:51:28;103171.97;;;15.43;47.83
62126;BME280;48112;53.282;6.150;2023-01-28T01:52:32;103170.03;;;15.43;47.88
62126;BME280;48112;53.282;6.150;2023-01-28T01:53:36;103164.13;;;15.41;47.99
62126;BME280;48112;53.282;6.150;2023-01-28T01:54:41;103178.19;;;15.43;47.87
62126;BME280;48112;53.282;6.150;2023-01-28T01:55:45;103171.16;;;15.42;47.88
62126;BME280;48112;53.282;6.150;2023-01-28T01:56:49;103178.50;;;15.42;48.02
62126;BME280;48112;53.282;6.150;2023-01-28T01:57:54;103175.47;;;15.43;47.80
62126;BME280;48112;53.282;6.150;2023-01-28T01:58:57;103176.59;;;15.42;48.21
62126;BME280;48112;53.282;6.150;2023-01-28T02:00:02;103176.59;;;15.42;47.83
62126;BME280;48112;53.282;6.150;2023-01-28T02:01:16;103164.56;;;15.43;47.94
62126;BME280;48112;53.282;6.150;2023-01-28T02:02:19;103163.78;;;15.43;47.90
62126;BME280;48112;53.282;6.150;2023-01-28T02:03:22;103164.13;;;15.41;47.97
62126;BME280;48112;53.282;6.150;2023-01-28T02:04:28;103164.13;;;15.41;47.45
62126;BME280;48112;53.282;6.150;2023-01-28T02:05:33;103175.00;;;15.41;47.83
62126;BME280;48112;53.282;6.150;2023-01-28T02:06:37;103175.00;;;15.41;48.04
62126;BME280;48112;53.282;6.150;2023-01-28T02:07:42;103171.47;;;15.41;47.92
62126;BME280;48112;53.282;6.150;2023-01-28T02:08:46;103175.00;;;15.41;47.97
62126;BME280;48112;53.282;6.150;2023-01-28T02:09:49;103172.28;;;15.41;47.97
62126;BME280;48112;53.282;6.150;2023-01-28T02:10:53;103175.00;;;15.41;47.95
62126;BME280;48112;53.282;6.150;2023-01-28T02:11:57;103163.63;;;15.39;48.01
62126;BME280;48112;53.282;6.150;2023-01-28T02:13:02;103168.75;;;15.41;47.90
62126;BME280;48112;53.282;6.150;2023-01-28T02:14:04;103170.66;;;15.40;47.98
62126;BME280;48112;53.282;6.150;2023-01-28T02:15:09;103167.94;;;15.40;48.03
62126;BME280;48112;53.282;6.150;2023-01-28T02:16:11;103167.13;;;15.40;48.07
62126;BME280;48112;53.282;6.150;2023-01-28T02:17:14;103167.94;;;15.40;47.86
62126;BME280;48112;53.282;6.150;2023-01-28T02:18:16;103162.50;;;15.40;47.82
62126;BME280;48112;53.282;6.150;2023-01-28T02:19:19;103156.22;;;15.40;47.96
62126;BME280;48112;53.282;6.150;2023-01-28T02:20:24;103162.50;;;15.40;47.80
62126;BME280;48112;53.282;6.150;2023-01-28T02:21:44;103152.72;;;15.39;47.84
62126;BME280;48112;53.282;6.150;2023-01-28T02:22:58;103157.03;;;15.40;47.96
62126;BME280;48112;53.282;6.150;2023-01-28T02:24:28;103161.69;;;15.40;47.99
62126;BME280;48112;53.282;6.150;2023-01-28T02:27:13;103154.63;;;15.39;48.01
62126;BME280;48112;53.282;6.150;2023-01-28T02:28:22;103149.19;;;15.39;47.78
62126;BME280;48112;53.282;6.150;2023-01-28T02:29:26;103150.00;;;15.39;47.81
62126;BME280;48112;53.282;6.150;2023-01-28T02:30:34;103149.19;;;15.39;47.94
62126;BME280;48112;53.282;6.150;2023-01-28T02:31:42;103142.94;;;15.38;47.85
62126;BME280;48112;53.282;6.150;2023-01-28T02:32:49;103142.94;;;15.38;47.90
62126;BME280;48112;53.282;6.150;2023-01-28T02:33:55;103162.81;;;15.39;47.98
62126;BME280;48112;53.282;6.150;2023-01-28T02:35:04;103158.19;;;15.39;47.91
62126;BME280;48112;53.282;6.150;2023-01-28T02:36:11;103158.19;;;15.39;47.84
62126;BME280;48112;53.282;6.150;2023-01-28T02:37:19;103160.09;;;15.39;47.94
62126;BME280;48112;53.282;6.150;2023-01-28T02:38:22;103156.56;;;15.38;48.06
62126;BME280;48112;53.282;6.150;2023-01-28T02:39:28;103159.28;;;15.38;48.03
62126;BME280;48112;53.282;6.150;2023-01-28T02:40:31;103156.56;;;15.38;48.00
62126;BME280;48112;53.282;6.150;2023-01-28T02:41:56;103159.28;;;15.38;47.92
62126;BME280;48112;53.282;6.150;2023-01-28T02:42:59;103155.75;;;15.38;48.00
62126;BME280;48112;53.282;6.150;2023-01-28T02:44:06;103157.66;;;15.37;48.05
62126;BME280;48112;53.282;6.150;2023-01-28T02:45:13;103152.22;;;15.37;48.02
62126;BME280;48112;53.282;6.150;2023-01-28T02:46:19;103159.28;;;15.38;47.98
62126;BME280;48112;53.282;6.150;2023-01-28T02:47:40;103154.94;;;15.37;47.95
62126;BME280;48112;53.282;6.150;2023-01-28T02:49:03;103163.09;;;15.37;47.81
62126;BME280;48112;53.282;6.150;2023-01-28T02:50:06;103162.00;;;15.38;47.98
62126;BME280;48112;53.282;6.150;2023-01-28T02:51:12;103163.09;;;15.37;47.96
62126;BME280;48112;53.282;6.150;2023-01-28T02:52:20;103157.66;;;15.37;47.98
62126;BME280;48112;53.282;6.150;2023-01-28T02:53:48;103158.47;;;15.38;47.98
62126;BME280;48112;53.282;6.150;2023-01-28T02:54:57;103158.47;;;15.38;47.82
62126;BME280;48112;53.282;6.150;2023-01-28T02:56:03;103156.06;;;15.36;47.84
62126;BME280;48112;53.282;6.150;2023-01-28T02:57:08;103152.22;;;15.37;47.85
62126;BME280;48112;53.282;6.150;2023-01-28T02:58:17;103151.41;;;15.37;47.95
62126;BME280;48112;53.282;6.150;2023-01-28T02:59:25;103156.84;;;15.37;47.87
62126;BME280;48112;53.282;6.150;2023-01-28T03:00:37;103153.34;;;15.36;47.94
62126;BME280;48112;53.282;6.150;2023-01-28T03:01:41;103154.13;;;15.37;47.64
62126;BME280;48112;53.282;6.150;2023-01-28T03:02:49;103151.41;;;15.37;47.90
62126;BME280;48112;53.282;6.150;2023-01-28T03:03:56;103143.53;;;15.35;47.79
62126;BME280;48112;53.282;6.150;2023-01-28T03:05:02;103150.63;;;15.36;47.91
62126;BME280;48112;53.282;6.150;2023-01-28T03:06:07;103152.53;;;15.36;48.06
62126;BME280;48112;53.282;6.150;2023-01-28T03:07:11;103156.06;;;15.36;48.01
62126;BME280;48112;53.282;6.150;2023-01-28T03:08:15;103149.00;;;15.35;47.98
62126;BME280;48112;53.282;6.150;2023-01-28T03:09:36;103160.69;;;15.36;47.71
62126;BME280;48112;53.282;6.150;2023-01-28T03:10:40;103155.25;;;15.36;47.83
62126;BME280;48112;53.282;6.150;2023-01-28T03:11:43;103152.53;;;15.36;47.73
62126;BME280;48112;53.282;6.150;2023-01-28T03:13:06;103158.78;;;15.36;47.80
62126;BME280;48112;53.282;6.150;2023-01-28T03:14:28;103155.25;;;15.36;47.85
62126;BME280;48112;53.282;6.150;2023-01-28T03:15:51;103155.25;;;15.36;47.92
62126;BME280;48112;53.282;6.150;2023-01-28T03:17:13;103150.94;;;15.35;48.06
62126;BME280;48112;53.282;6.150;2023-01-28T03:18:38;103150.94;;;15.35;47.87
62126;BME280;48112;53.282;6.150;2023-01-28T03:19:59;103150.13;;;15.34;47.88
62126;BME280;48112;53.282;6.150;2023-01-28T03:21:21;103150.13;;;15.34;48.02
62126;BME280;48112;53.282;6.150;2023-01-28T03:22:45;103159.09;;;15.35;47.85
62126;BME280;48112;53.282;6.150;2023-01-28T03:24:11;103168.03;;;15.35;47.98
62126;BME280;48112;53.282;6.150;2023-01-28T03:25:37;103169.19;;;15.34;47.97
62126;BME280;48112;53.282;6.150;2023-01-28T03:27:01;103164.53;;;15.35;47.89
62126;BME280;48112;53.282;6.150;2023-01-28T03:28:30;103162.13;;;15.33;47.83
62126;BME280;48112;53.282;6.150;2023-01-28T03:29:53;103169.19;;;15.34;47.97
62126;BME280;48112;53.282;6.150;2023-01-28T03:31:16;103169.19;;;15.34;47.92
62126;BME280;48112;53.282;6.150;2023-01-28T03:32:39;103174.63;;;15.34;47.87
62126;BME280;48112;53.282;6.150;2023-01-28T03:34:00;103167.59;;;15.33;47.88
62126;BME280;48112;53.282;6.150;2023-01-28T03:35:22;103167.59;;;15.33;47.90
62126;BME280;48112;53.282;6.150;2023-01-28T03:36:44;103166.78;;;15.33;47.95
62126;BME280;48112;53.282;6.150;2023-01-28T03:38:14;103169.19;;;15.34;47.95
62126;BME280;48112;53.282;6.150;2023-01-28T03:39:22;103164.84;;;15.33;47.77
62126;BME280;48112;53.282;6.150;2023-01-28T03:40:25;103167.59;;;15.33;47.80
62126;BME280;48112;53.282;6.150;2023-01-28T03:41:28;103161.31;;;15.33;47.88
62126;BME280;48112;53.282;6.150;2023-01-28T03:42:32;103164.03;;;15.33;47.99
62126;BME280;48112;53.282;6.150;2023-01-28T03:43:44;103158.59;;;15.33;47.87
62126;BME280;48112;53.282;6.150;2023-01-28T03:44:46;103171.41;;;15.32;47.74
62126;BME280;48112;53.282;6.150;2023-01-28T03:45:54;103162.47;;;15.32;47.74
62126;BME280;48112;53.282;6.150;2023-01-28T03:46:57;103160.50;;;15.32;47.96
62126;BME280;48112;53.282;6.150;2023-01-28T03:47:59;103166.78;;;15.33;47.98
62126;BME280;48112;53.282;6.150;2023-01-28T03:49:02;103166.78;;;15.33;47.89
62126;BME280;48112;53.282;6.150;2023-01-28T03:50:04;103160.50;;;15.32;47.85
62126;BME280;48112;53.282;6.150;2023-01-28T03:51:16;103159.72;;;15.32;47.89
62126;BME280;48112;53.282;6.150;2023-01-28T03:52:19;103171.41;;;15.32;47.80
62126;BME280;48112;53.282;6.150;2023-01-28T03:53:23;103165.19;;;15.32;47.90
62126;BME280;48112;53.282;6.150;2023-01-28T03:54:25;103165.97;;;15.32;47.80
62126;BME280;48112;53.282;6.150;2023-01-28T03:55:28;103162.47;;;15.32;47.87
62126;BME280;48112;53.282;6.150;2023-01-28T03:56:30;103161.66;;;15.31;47.76
62126;BME280;48112;53.282;6.150;2023-01-28T03:57:38;103150.75;;;15.31;47.76
62126;BME280;48112;53.282;6.150;2023-01-28T03:58:39;103152.34;;;15.32;47.65
62126;BME280;48112;53.282;6.150;2023-01-28T03:59:54;103153.47;;;15.31;47.96
62126;BME280;48112;53.282;6.150;2023-01-28T04:00:58;103150.75;;;15.31;47.82
62126;BME280;48112;53.282;6.150;2023-01-28T04:02:00;103154.56;;;15.30;48.00
62126;BME280;48112;53.282;6.150;2023-01-28T04:03:04;103154.56;;;15.30;47.72
62126;BME280;48112;53.282;6.150;2023-01-28T04:04:21;103158.91;;;15.31;47.88
62126;BME280;48112;53.282;6.150;2023-01-28T04:05:28;103154.56;;;15.30;47.89
62126;BME280;48112;53.282;6.150;2023-01-28T04:06:31;103156.19;;;15.31;47.82
62126;BME280;48112;53.282;6.150;2023-01-28T04:08:00;103146.41;;;15.30;47.83
62126;BME280;48112;53.282;6.150;2023-01-28T04:09:19;103158.09;;;15.31;48.00
62126;BME280;48112;53.282;6.150;2023-01-28T04:10:21;103149.13;;;15.30;47.75
62126;BME280;48112;53.282;6.150;2023-01-28T04:11:30;103143.69;;;15.30;47.96
62126;BME280;48112;53.282;6.150;2023-01-28T04:12:34;103151.84;;;15.30;47.81
62126;BME280;48112;53.282;6.150;2023-01-28T04:13:39;103146.41;;;15.30;47.79
62126;BME280;48112;53.282;6.150;2023-01-28T04:14:41;103146.41;;;15.30;47.78
62126;BME280;48112;53.282;6.150;2023-01-28T04:15:49;103149.13;;;15.30;47.86
62126;BME280;48112;53.282;6.150;2023-01-28T04:16:54;103151.06;;;15.30;47.90
62126;BME280;48112;53.282;6.150;2023-01-28T04:17:58;103151.84;;;15.30;47.68
62126;BME280;48112;53.282;6.150;2023-01-28T04:19:03;103150.25;;;15.29;47.97
62126;BME280;48112;53.282;6.150;2023-01-28T04:20:07;103157.63;;;15.29;47.95
62126;BME280;48112;53.282;6.150;2023-01-28T04:21:10;103155.72;;;15.29;47.74
62126;BME280;48112;53.282;6.150;2023-01-28T04:22:12;103156.50;;;15.30;47.78
62126;BME280;48112;53.282;6.150;2023-01-28T04:23:16;103162.75;;;15.30;47.83
62126;BME280;48112;53.282;6.150;2023-01-28T04:24:18;103161.16;;;15.29;47.71
62126;BME280;48112;53.282;6.150;2023-01-28T04:25:22;103161.16;;;15.29;47.94
62126;BME280;48112;53.282;6.150;2023-01-28T04:26:23;103162.28;;;15.28;47.94
62126;BME280;48112;53.282;6.150;2023-01-28T04:27:26;103161.16;;;15.29;47.92
62126;BME280;48112;53.282;6.150;2023-01-28T04:28:29;103150.25;;;15.29;47.90
62126;BME280;48112;53.282;6.150;2023-01-28T04:29:32;103150.25;;;15.29;47.80
62126;BME280;48112;53.282;6.150;2023-01-28T04:30:52;103149.44;;;15.29;47.94
62126;BME280;48112;53.282;6.150;2023-01-28T04:32:10;103149.44;;;15.29;47.90
62126;BME280;48112;53.282;6.150;2023-01-28T04:33:36;103154.13;;;15.28;48.00
62126;BME280;48112;53.282;6.150;2023-01-28T04:34:58;103144.81;;;15.29;47.87
62126;BME280;48112;53.282;6.150;2023-01-28T04:36:18;103154.13;;;15.28;47.78
62126;BME280;48112;53.282;6.150;2023-01-28T04:37:41;103142.09;;;15.29;47.69
62126;BME280;48112;53.282;6.150;2023-01-28T04:39:07;103147.03;;;15.27;47.88
62126;BME280;48112;53.282;6.150;2023-01-28T04:40:19;103146.72;;;15.29;48.03
62126;BME280;48112;53.282;6.150;2023-01-28T04:41:30;103151.38;;;15.28;47.91
62126;BME280;48112;53.282;6.150;2023-01-28T04:42:39;103142.41;;;15.28;47.96
62126;BME280;48112;53.282;6.150;2023-01-28T04:43:59;103143.22;;;15.28;47.94
62126;BME280;48112;53.282;6.150;2023-01-28T04:45:20;103144.31;;;15.27;47.74
62126;BME280;48112;53.282;6.150;2023-01-28T04:46:32;103151.38;;;15.28;47.95
62126;BME280;48112;53.282;6.150;2023-01-28T04:47:56;103150.56;;;15.28;47.84
62126;BME280;48112;53.282;6.150;2023-01-28T04:49:18;103148.66;;;15.28;47.81
62126;BME280;48112;53.282;6.150;2023-01-28T04:50:39;103153.31;;;15.28;47.80
62126;BME280;48112;53.282;6.150;2023-01-28T04:51:48;103148.66;;;15.28;47.70
62126;BME280;48112;53.282;6.150;2023-01-28T04:53:02;103150.56;;;15.28;48.06
62126;BME280;48112;53.282;6.150;2023-01-28T04:54:23;103151.72;;;15.27;47.93
62126;BME280;48112;53.282;6.150;2023-01-28T04:55:30;103140.00;;;15.26;47.82
62126;BME280;48112;53.282;6.150;2023-01-28T04:56:33;103140.81;;;15.27;47.95
62126;BME280;48112;53.282;6.150;2023-01-28T04:57:37;103141.59;;;15.27;47.92
62126;BME280;48112;53.282;6.150;2023-01-28T04:58:41;103147.84;;;15.28;47.67
62126;BME280;48112;53.282;6.150;2023-01-28T04:59:48;103141.59;;;15.27;48.05
62126;BME280;48112;53.282;6.150;2023-01-28T05:00:53;103142.72;;;15.26;47.84
62126;BME280;48112;53.282;6.150;2023-01-28T05:01:56;103140.00;;;15.26;47.90
62126;BME280;48112;53.282;6.150;2023-01-28T05:03:01;103143.53;;;15.27;48.01
62126;BME280;48112;53.282;6.150;2023-01-28T05:04:04;103149.78;;;15.27;47.76
62126;BME280;48112;53.282;6.150;2023-01-28T05:05:09;103150.91;;;15.26;47.80
62126;BME280;48112;53.282;6.150;2023-01-28T05:06:38;103148.19;;;15.26;47.90
62126;BME280;48112;53.282;6.150;2023-01-28T05:07:51;103151.72;;;15.27;47.94
62126;BME280;48112;53.282;6.150;2023-01-28T05:08:53;103148.19;;;15.26;47.85
62126;BME280;48112;53.282;6.150;2023-01-28T05:09:56;103143.88;;;15.25;47.96
62126;BME280;48112;53.282;6.150;2023-01-28T05:10:58;103146.25;;;15.27;47.80
62126;BME280;48112;53.282;6.150;2023-01-28T05:12:00;103139.19;;;15.26;47.77
62126;BME280;48112;53.282;6.150;2023-01-28T05:13:04;103145.44;;;15.26;47.74
62126;BME280;48112;53.282;6.150;2023-01-28T05:14:07;103144.63;;;15.26;47.73
62126;BME280;48112;53.282;6.150;2023-01-28T05:15:14;103143.88;;;15.25;47.88
62126;BME280;48112;53.282;6.150;2023-01-28T05:16:18;103143.88;;;15.25;47.81
62126;BME280;48112;53.282;6.150;2023-01-28T05:17:19;103138.41;;;15.25;47.80
62126;BME280;48112;53.282;6.150;2023-01-28T05:18:26;103136.47;;;15.26;47.83
62126;BME280;48112;53.282;6.150;2023-01-28T05:19:46;103141.13;;;15.25;47.73
62126;BME280;48112;53.282;6.150;2023-01-28T05:20:54;103132.16;;;15.25;47.70
62126;BME280;48112;53.282;6.150;2023-01-28T05:21:55;103127.53;;;15.25;47.67
62126;BME280;48112;53.282;6.150;2023-01-28T05:23:05;103135.69;;;15.25;47.94
62126;BME280;48112;53.282;6.150;2023-01-28T05:24:24;103143.03;;;15.25;48.02
62126;BME280;48112;53.282;6.150;2023-01-28T05:25:27;103142.25;;;15.24;47.99
62126;BME280;48112;53.282;6.150;2023-01-28T05:26:30;103142.25;;;15.24;47.78
62126;BME280;48112;53.282;6.150;2023-01-28T05:27:32;103147.69;;;15.24;47.66
62126;BME280;48112;53.282;6.150;2023-01-28T05:28:34;103146.59;;;15.25;47.84
62126;BME280;48112;53.282;6.150;2023-01-28T05:29:37;103153.94;;;15.25;47.94
62126;BME280;48112;53.282;6.150;2023-01-28T05:30:39;103147.69;;;15.24;47.85
62126;BME280;48112;53.282;6.150;2023-01-28T05:31:42;103153.13;;;15.24;47.82
62126;BME280;48112;53.282;6.150;2023-01-28T05:32:43;103153.13;;;15.24;47.83
62126;BME280;48112;53.282;6.150;2023-01-28T05:33:50;103146.91;;;15.24;47.83
62126;BME280;48112;53.282;6.150;2023-01-28T05:34:56;103136.00;;;15.24;47.90
62126;BME280;48112;53.282;6.150;2023-01-28T05:35:59;103142.25;;;15.24;47.71
62126;BME280;48112;53.282;6.150;2023-01-28T05:37:02;103140.66;;;15.23;47.97
62126;BME280;48112;53.282;6.150;2023-01-28T05:38:10;103138.72;;;15.24;47.82
62126;BME280;48112;53.282;6.150;2023-01-28T05:39:15;103136.34;;;15.22;47.68
62126;BME280;48112;53.282;6.150;2023-01-28T05:40:17;103131.66;;;15.23;47.87
62126;BME280;48112;53.282;6.150;2023-01-28T05:41:20;103134.38;;;15.23;47.72
62126;BME280;48112;53.282;6.150;2023-01-28T05:42:28;103136.00;;;15.24;47.84
62126;BME280;48112;53.282;6.150;2023-01-28T05:43:44;103137.09;;;15.23;47.74
62126;BME280;48112;53.282;6.150;2023-01-28T05:44:52;103132.47;;;15.23;47.93
62126;BME280;48112;53.282;6.150;2023-01-28T05:46:15;103133.59;;;15.22;47.90
62126;BME280;48112;53.282;6.150;2023-01-28T05:47:37;103135.50;;;15.22;47.87
62126;BME280;48112;53.282;6.150;2023-01-28T05:48:58;103132.47;;;15.23;47.76
62126;BME280;48112;53.282;6.150;2023-01-28T05:50:19;103122.72;;;15.22;47.93
62126;BME280;48112;53.282;6.150;2023-01-28T05:51:41;103130.06;;;15.22;47.88
62126;BME280;48112;53.282;6.150;2023-01-28T05:52:45;103128.16;;;15.22;47.66
62126;BME280;48112;53.282;6.150;2023-01-28T05:53:56;103131.97;;;15.21;47.95